Flight Track Log - Related Links

Times and Time Zones

All times are in EDT time to prevent confusion due to time zone crossing. See the FLG3432 flight status page for this flight to view local times or setup timezone preferences in your user account.

Time Position Orientation Groundspeed Altitude Reporting Facility
EDT Latitude Longitude Course Direction KTS MPH feet Rate Location/Type
Sun 07:43:50 PM 40.8153 -111.9792 163° South 188 216 4,900  Level Salt Lake Center
Sun 07:44:57 PM 40.8750 -111.9872 354° North 198 228 6,600 1,500 Climbing Salt Lake Center
Sun 07:45:58 PM 40.9478 -111.9967 354° North 248 285 8,100 1,632 Climbing Salt Lake Center
Sun 07:47:00 PM 41.1250 -111.7999 108° East  Level FlightAware Approximate
Sun 07:47:13 PM 41.0314 -112.0069 355° North 260 299 10,300  Level Salt Lake Center
Sun 07:48:00 PM 41.0300 -111.7280 163° South  Level FlightAware Approximate
Sun 07:48:15 PM 41.0900 -111.9628 30° Northeast 279 321 12,100  Level Salt Lake Center
Sun 07:49:00 PM 40.9174 -111.6815 163° South  Level FlightAware Approximate
Sun 07:49:16 PM 41.0458 -111.8697 122° Southeast 321 369 12,600  Level Salt Lake Center
Sun 07:50:18 PM 40.9667 -111.7650 135° Southeast 360 414 14,200 1,500 Climbing Salt Lake Center
Sun 07:51:20 PM 40.8919 -111.6681 136° Southeast 374 430 15,700 1,500 Climbing Salt Lake Center
Sun 07:52:22 PM 40.8161 -111.5681 135° Southeast 385 443 17,300 1,512 Climbing Salt Lake Center
Sun 07:53:23 PM 40.7378 -111.4667 136° Southeast 393 452 18,800 1,463 Climbing Salt Lake Center
Sun 07:54:25 PM 40.6764 -111.3461 124° Southeast 399 459 20,300 1,355 Climbing Salt Lake Center
Sun 07:55:27 PM 40.6367 -111.2106 111° Southeast 398 458 21,600 1,415 Climbing Salt Lake Center
Sun 07:56:28 PM 40.5869 -111.0411 111° Southeast 409 471 23,200 1,415 Climbing Salt Lake Center
Sun 07:57:30 PM 40.5442 -110.8944 111° Southeast 426 490 24,500 1,210 Climbing Salt Lake Center
Sun 07:58:32 PM 40.4842 -110.7558 120° Southeast 437 503 25,700 1,065 Climbing Salt Lake Center
Sun 07:59:34 PM 40.4161 -110.6172 123° Southeast 449 517 26,700 1,131 Climbing Salt Lake Center
Sun 08:00:34 PM 40.3389 -110.4714 125° Southeast 454 522 28,000 1,131 Climbing Salt Lake Center
Sun 08:01:36 PM 40.2692 -110.3381 124° Southeast 461 531 29,000 1,210 Climbing Salt Lake Center
Sun 08:02:38 PM 40.1883 -110.1842 124° Southeast 461 531 30,500 1,220 Climbing Salt Lake Center
Sun 08:03:39 PM 40.1194 -110.0547 125° Southeast 455 524 31,500 1,171 Climbing Salt Lake Center
Sun 08:04:41 PM 40.0394 -109.9036 125° Southeast 453 521 32,900 1,161 Climbing Salt Lake Center
Sun 08:05:43 PM 39.9719 -109.7753 124° Southeast 449 517 33,900 927 Climbing Salt Lake Center
Sun 08:06:44 PM 39.8925 -109.6269 125° Southeast 447 514 34,800 537 Climbing Salt Lake Center
Sun 08:07:46 PM 39.8242 -109.4994 125° Southeast 449 517 35,000 97 Climbing Salt Lake Center
Sun 08:08:48 PM 39.7533 -109.3678 125° Southeast 460 529 35,000  Level Salt Lake Center
Sun 08:09:56 PM 39.6681 -109.2094 125° Southeast 474 545 35,000  Level Denver Center
Sun 08:10:58 PM 39.5811 -109.0522 126° Southeast 485 558 35,000  Level Denver Center
Sun 08:11:53 PM 39.5075 -108.9189 126° Southeast 488 562 35,000  Level Salt Lake Center
Sun 08:13:02 PM 39.4208 -108.7597 125° Southeast 491 565 35,000 46 Level Denver Center
Sun 08:14:04 PM 39.3347 -108.6003 125° Southeast 489 563 35,100 645 Climbing Denver Center
Sun 08:16:08 PM 39.1789 -108.3156 125° Southeast 451 519 37,000 576 Climbing Denver Center
Sun 08:17:22 PM 39.1047 -108.1828 126° Southeast 476 548 37,000  Level Denver Center
Sun 08:18:24 PM 39.0064 -108.0094 126° Southeast 470 541 37,000  Level Denver Center
Sun 08:19:26 PM 38.9311 -107.8775 126° Southeast 476 548 37,000  Level Denver Center
Sun 08:20:28 PM 38.8431 -107.7231 126° Southeast 478 550 37,000 576 Level Denver Center
Sun 08:21:31 PM 38.7675 -107.5925 127° Southeast 479 551 38,200 960 Climbing Denver Center
Sun 08:22:33 PM 38.6858 -107.4486 126° Southeast 452 520 39,000 387 Climbing Denver Center
Sun 08:23:35 PM 38.6200 -107.3214 123° Southeast 448 516 39,000  Level Denver Center
Sun 08:24:37 PM 38.5683 -107.1828 115° Southeast 446 513 39,000  Level Denver Center
Sun 08:25:39 PM 38.5064 -107.0086 114° Southeast 449 517 39,000  Level Denver Center
Sun 08:26:41 PM 38.4425 -106.8708 121° Southeast 453 521 39,000  Level Denver Center
Sun 08:27:43 PM 38.3683 -106.7403 126° Southeast 458 527 39,000  Level Denver Center
Sun 08:28:45 PM 38.2861 -106.5950 126° Southeast 455 524 39,000  Level Denver Center
Sun 08:29:47 PM 38.2247 -106.4700 122° Southeast 464 534 39,000  Level Denver Center
Sun 08:30:49 PM 38.1567 -106.3297 122° Southeast 464 534 39,000  Level Denver Center
Sun 08:31:51 PM 38.0806 -106.1700 121° Southeast 470 541 39,000  Level Denver Center
Sun 08:32:53 PM 37.9906 -106.0219 128° Southeast 474 545 39,000  Level Denver Center
Sun 08:33:55 PM 37.9086 -105.9006 131° Southeast 475 547 39,000  Level Denver Center
Sun 08:34:57 PM 37.7986 -105.7758 138° Southeast 475 547 39,000  Level Denver Center
Sun 08:35:59 PM 37.7022 -105.6714 139° Southeast 478 550 39,000  Level Denver Center
Sun 08:37:01 PM 37.6083 -105.5589 136° Southeast 484 557 39,000  Level Denver Center
Sun 08:38:03 PM 37.5114 -105.4308 134° Southeast 475 547 39,000  Level Denver Center
Sun 08:39:18 PM 37.3894 -105.2772 135° Southeast 483 556 39,000  Level Denver Center
Sun 08:40:20 PM 37.2953 -105.1578 135° Southeast 483 556 39,000  Level Denver Center
Sun 08:41:22 PM 37.1894 -105.0239 135° Southeast 484 557 39,000  Level Denver Center
Sun 08:42:36 PM 37.0989 -104.9133 136° Southeast 479 551 39,000  Level Denver Center
Sun 08:43:50 PM 36.9917 -104.7481 129° Southeast 480 552 39,000  Level Denver Center
Sun 08:44:53 PM 36.8883 -104.5808 128° Southeast 478 550 39,000  Level Denver Center
Sun 08:45:55 PM 36.8197 -104.4533 124° Southeast 468 539 39,000  Level Denver Center
Sun 08:46:57 PM 36.7486 -104.2939 119° Southeast 472 543 39,000  Level Denver Center
Sun 08:47:59 PM 36.6875 -104.1597 120° Southeast 469 540 39,000 339 Level Denver Center
Sun 08:49:01 PM 36.6153 -104.0019 120° Southeast 470 541 39,700 541 Climbing Denver Center
Sun 08:50:12 PM 36.5425 -103.8375 119° Southeast 463 533 40,200 316 Climbing Albuquerque Center
Sun 08:51:14 PM 36.4792 -103.7025 120° Southeast 454 522 40,400 146 Climbing Albuquerque Center
Sun 08:52:15 PM 36.4169 -103.5658 119° Southeast 451 519 40,500 49 Climbing Albuquerque Center
Sun 08:53:16 PM 36.3544 -103.4308 120° Southeast 449 517 40,500 -98 Level Albuquerque Center
Sun 08:54:18 PM 36.2919 -103.2953 120° Southeast 449 517 40,300 -585 Descending Albuquerque Center
Sun 08:55:19 PM 36.2258 -103.1542 120° Southeast 462 532 39,300 -639 Descending Albuquerque Center
Sun 08:56:20 PM 36.1564 -103.0028 120° Southeast 489 563 39,000 -148 Descending Albuquerque Center
Sun 08:57:21 PM 36.0847 -102.8506 120° Southeast 496 571 39,000  Level Albuquerque Center
Sun 08:58:23 PM 36.0144 -102.7017 120° Southeast 501 577 39,000  Level Albuquerque Center
Sun 08:59:24 PM 35.9425 -102.5528 121° Southeast 504 580 39,000  Level Albuquerque Center
Sun 09:00:25 PM 35.8728 -102.4025 120° Southeast 506 582 39,000  Level Albuquerque Center
Sun 09:01:27 PM 35.7992 -102.2497 121° Southeast 513 590 39,000  Level Albuquerque Center
Sun 09:02:28 PM 35.7122 -102.0686 121° Southeast 513 590 39,000  Level Albuquerque Center
Sun 09:03:29 PM 35.6389 -101.9164 121° Southeast 515 593 39,000  Level Albuquerque Center
Sun 09:04:30 PM 35.5650 -101.7633 121° Southeast 516 594 39,000  Level Albuquerque Center
Sun 09:05:32 PM 35.4886 -101.6064 121° Southeast 520 598 39,000  Level Albuquerque Center
Sun 09:06:33 PM 35.4117 -101.4494 121° Southeast 522 601 39,000  Level Albuquerque Center
Sun 09:07:34 PM 35.3378 -101.2994 121° Southeast 522 601 39,000  Level Albuquerque Center
Sun 09:08:36 PM 35.2614 -101.1453 121° Southeast 524 603 39,000  Level Albuquerque Center
Sun 09:09:37 PM 35.1858 -100.9939 121° Southeast 523 602 39,000  Level Albuquerque Center
Sun 09:10:38 PM 35.1114 -100.8431 121° Southeast 521 600 39,000  Level Albuquerque Center
Sun 09:11:40 PM 35.0361 -100.6931 121° Southeast 519 597 39,000  Level Albuquerque Center
Sun 09:12:41 PM 34.9608 -100.5436 122° Southeast 518 596 39,000  Level Albuquerque Center
Sun 09:13:42 PM 34.8856 -100.3942 122° Southeast 518 596 39,000  Level Albuquerque Center
Sun 09:14:44 PM 34.8097 -100.2456 122° Southeast 516 594 39,000 -242 Level Albuquerque Center
Sun 09:15:46 PM 34.7336 -100.0953 122° Southeast 517 595 38,500 -976 Descending Albuquerque Center
Sun 09:16:47 PM 34.6414 -99.9161 122° Southeast 519 597 37,000 -744 Descending Albuquerque Center
Sun 09:17:47 PM 34.5706 -99.7714 121° Southeast 517 595 37,000 -800 Level Fort Worth Center
Sun 09:18:47 PM 34.4878 -99.6181 123° Southeast 522 601 35,400 -1,550 Descending Fort Worth Center
Sun 09:19:47 PM 34.4128 -99.4778 123° Southeast 517 595 33,900 -1,550 Descending Fort Worth Center
Sun 09:20:47 PM 34.3403 -99.3275 120° Southeast 522 601 32,300 -1,450 Descending Fort Worth Center
Sun 09:21:47 PM 34.2650 -99.1850 123° Southeast 515 593 31,000 -1,050 Descending Fort Worth Center
Sun 09:22:47 PM 34.1917 -99.0581 125° Southeast 508 585 30,200 -1,150 Descending Fort Worth Center
Sun 09:23:47 PM 34.1225 -98.9239 122° Southeast 496 571 28,700 -1,550 Descending Fort Worth Center
Sun 09:24:47 PM 34.0447 -98.7747 122° Southeast 486 559 27,100 -1,500 Descending Fort Worth Center
Sun 09:25:47 PM 33.9772 -98.6433 122° Southeast 479 551 25,700 -1,500 Descending Fort Worth Center
Sun 09:26:47 PM 33.9014 -98.5119 125° Southeast 474 545 24,100 -1,500 Descending Fort Worth Center
Sun 09:27:47 PM 33.8189 -98.3786 127° Southeast 487 560 22,700 -1,550 Descending Fort Worth Center
Sun 09:28:47 PM 33.7447 -98.2503 125° Southeast 480 552 21,000 -1,750 Descending Fort Worth Center
Sun 09:29:47 PM 33.6706 -98.1247 125° Southeast 473 544 19,200 -1,750 Descending Fort Worth Center
Sun 09:30:47 PM 33.6083 -98.0194 125° Southeast 446 513 17,500 -1,800 Descending Fort Worth Center
Sun 09:31:47 PM 33.5317 -97.8919 126° Southeast 430 495 15,600 -1,750 Descending Fort Worth Center
Sun 09:32:47 PM 33.4714 -97.7944 127° Southeast 425 489 14,000 -1,600 Descending Fort Worth Center
Sun 09:33:47 PM 33.4008 -97.6747 125° Southeast 406 467 12,400 -1,450 Descending Fort Worth Center
Sun 09:34:47 PM 33.3364 -97.5875 131° Southeast 367 422 11,100 -650 Descending Fort Worth Center
Sun 09:35:47 PM 33.2758 -97.5178 136° Southeast 336 387 11,100  Level Fort Worth Center
Sun 09:36:55 PM 33.2000 -97.4167 132° Southeast 320 368 11,100  Level Dallas / Fort Worth TRACON
Sun 09:37:55 PM 33.1333 -97.3500 140° Southeast 319 367 11,100 -54 Level Dallas / Fort Worth TRACON
Sun 09:38:47 PM 33.0797 -97.2894 137° Southeast 319 367 11,000 -54 Descending Fort Worth Center
Sun 09:39:47 PM 33.0211 -97.2203 135° Southeast 308 354 11,000  Level Fort Worth Center
Sun 09:40:47 PM 32.9606 -97.1708 146° Southeast 288 331 11,000 -400 Level Fort Worth Center
Sun 09:41:47 PM 32.8894 -97.1686 178° South 265 305 10,200 -1,250 Descending Fort Worth Center
Sun 09:42:47 PM 32.8164 -97.1711 182° South 265 305 8,500 -1,750 Descending Fort Worth Center
Sun 09:43:47 PM 32.7392 -97.1714 180° South 254 292 6,700 -1,800 Descending Fort Worth Center
Sun 09:44:47 PM 32.6975 -97.1344 143° Southeast 217 250 4,900 -1,406 Descending Fort Worth Center
Sun 09:45:55 PM 32.7167 -97.0500 75° East 168 193 3,700 -1,078 Descending Dallas / Fort Worth TRACON
Sun 09:46:55 PM 32.7667 -97.0500 360° North 177 204 2,600 -1,100 Descending Dallas / Fort Worth TRACON

Login

Don't have an account? Register now (free) for customized features, flight alerts, and more!